Time;durP1;ratioP1;P1;durP2;ratioP2;P2;SDS_P1;SDS_P2;PMS_P1;PMS_P2;Temp;Humidity;BMP_temperature;BMP_pressure;BME280_temperature;BME280_humidity;BME280_pressure;Samples;Min_cycle;Max_cycle;Signal;HPM_P1;HPM_P2
2021/03/19 00:02:18;;;;;;;14.75;9.23;;;4.40;99.90;;;;;;5028105;28;20025;-72
2021/03/19 00:04:43;;;;;;;15.98;8.70;;;4.20;99.90;;;;;;5040329;28;20024;-71
2021/03/19 00:07:09;;;;;;;15.82;8.98;;;4.20;99.90;;;;;;5029667;28;20033;-73
2021/03/19 00:09:35;;;;;;;16.20;9.27;;;4.30;99.90;;;;;;5033737;28;20040;-72
2021/03/19 00:12:03;;;;;;;17.60;9.35;;;4.30;99.90;;;;;;5031767;28;20532;-71
2021/03/19 00:14:29;;;;;;;19.92;9.68;;;4.10;99.90;;;;;;5036434;28;20109;-71
2021/03/19 00:16:54;;;;;;;17.30;9.15;;;3.90;99.90;;;;;;5034628;28;20120;-71
2021/03/19 00:19:24;;;;;;;18.52;8.77;;;3.80;99.90;;;;;;5043932;28;20025;-72
2021/03/19 00:21:50;;;;;;;21.25;10.07;;;3.90;99.90;;;;;;5042457;28;20082;-72
2021/03/19 00:24:15;;;;;;;18.63;9.93;;;3.90;99.90;;;;;;5030040;28;20396;-72
2021/03/19 00:26:42;;;;;;;22.23;10.10;;;3.90;99.90;;;;;;5038595;28;20542;-72
2021/03/19 00:29:09;;;;;;;18.02;9.30;;;3.90;99.90;;;;;;5030964;28;20182;-72
2021/03/19 00:31:34;;;;;;;20.00;9.35;;;3.90;99.90;;;;;;5031978;28;20025;-72
2021/03/19 00:34:00;;;;;;;20.73;10.55;;;3.90;99.90;;;;;;5032922;28;20436;-72
2021/03/19 00:36:28;;;;;;;17.48;9.63;;;3.80;99.90;;;;;;5034303;28;20499;-72
2021/03/19 00:38:54;;;;;;;17.17;9.32;;;3.80;99.90;;;;;;5038195;28;20078;-72
2021/03/19 00:41:20;;;;;;;17.85;10.10;;;3.90;99.90;;;;;;5022853;28;20479;-72
2021/03/19 00:43:46;;;;;;;16.70;8.68;;;3.90;99.90;;;;;;5020592;28;20702;-72
2021/03/19 00:46:11;;;;;;;19.00;9.57;;;4.00;99.90;;;;;;5038616;28;20037;-71
2021/03/19 00:48:37;;;;;;;19.75;9.57;;;3.90;99.90;;;;;;5019832;28;20049;-72
2021/03/19 00:51:03;;;;;;;18.83;9.48;;;3.90;99.90;;;;;;5036347;28;20507;-72
2021/03/19 00:53:28;;;;;;;16.63;8.25;;;3.80;99.90;;;;;;5037552;28;20031;-72
2021/03/19 00:55:56;;;;;;;16.98;8.82;;;3.80;99.90;;;;;;5040685;28;20029;-72
2021/03/19 00:58:21;;;;;;;12.15;7.32;;;3.80;99.90;;;;;;5041736;28;20025;-72
2021/03/19 01:00:47;;;;;;;16.52;8.18;;;3.80;99.90;;;;;;5039814;28;20484;-72
2021/03/19 01:03:12;;;;;;;14.00;7.05;;;3.90;99.90;;;;;;5044170;28;20511;-73
2021/03/19 01:05:41;;;;;;;13.77;7.35;;;3.80;99.90;;;;;;5048063;28;20060;-73
2021/03/19 01:08:09;;;;;;;14.75;7.00;;;3.80;99.90;;;;;;5047174;28;20063;-72
2021/03/19 01:10:40;;;;;;;14.43;7.10;;;3.80;99.90;;;;;;5047564;28;20056;-73
2021/03/19 01:13:07;;;;;;;11.80;6.85;;;3.70;99.90;;;;;;5042767;28;20391;-73
2021/03/19 01:15:33;;;;;;;13.93;7.40;;;3.70;99.90;;;;;;5046477;28;20017;-73
2021/03/19 01:17:59;;;;;;;10.25;6.05;;;3.70;99.90;;;;;;5049003;28;20506;-72
2021/03/19 01:20:31;;;;;;;15.65;6.60;;;3.70;99.90;;;;;;5043862;28;20111;-73
2021/03/19 01:22:56;;;;;;;13.65;6.63;;;3.60;99.90;;;;;;5034745;28;20028;-73
2021/03/19 01:25:23;;;;;;;14.40;7.10;;;3.60;99.90;;;;;;5040211;28;20029;-73
2021/03/19 01:27:49;;;;;;;13.45;6.30;;;3.60;99.90;;;;;;5042649;28;20425;-73
2021/03/19 01:30:21;;;;;;;10.55;6.20;;;3.60;99.90;;;;;;5040123;28;20104;-73
2021/03/19 01:32:48;;;;;;;12.65;5.90;;;3.80;99.90;;;;;;5043611;28;20492;-73
2021/03/19 01:35:15;;;;;;;11.93;6.18;;;3.70;99.90;;;;;;5038192;28;20021;-73
2021/03/19 01:37:41;;;;;;;10.88;6.05;;;3.50;99.90;;;;;;5040609;28;20025;-73
2021/03/19 01:40:09;;;;;;;10.30;5.80;;;3.50;99.90;;;;;;5039382;28;21050;-73
2021/03/19 01:42:47;;;;;;;12.05;5.68;;;3.40;99.90;;;;;;5039344;28;20039;-73
2021/03/19 01:45:49;;;;;;;9.60;5.50;;;3.50;99.90;;;;;;5044536;28;20025;-73
2021/03/19 01:48:52;;;;;;;9.40;5.45;;;3.70;99.90;;;;;;5044472;28;20028;-73
2021/03/19 01:51:55;;;;;;;11.25;5.50;;;3.60;99.90;;;;;;5051204;28;20041;-73
2021/03/19 01:54:58;;;;;;;10.57;5.03;;;3.50;99.90;;;;;;5059692;28;20033;-73
2021/03/19 01:58:01;;;;;;;13.25;5.53;;;3.40;99.90;;;;;;5060045;28;20532;-73
2021/03/19 02:01:04;;;;;;;10.15;5.47;;;3.50;99.90;;;;;;5065059;28;20036;-72
2021/03/19 02:04:07;;;;;;;9.20;5.47;;;3.30;99.90;;;;;;5066083;28;20028;-73
2021/03/19 02:07:10;;;;;;;10.57;5.68;;;3.20;99.90;;;;;;5059389;28;20028;-73
2021/03/19 02:10:13;;;;;;;9.25;5.13;;;3.40;99.90;;;;;;5057626;28;20028;-73
2021/03/19 02:13:16;;;;;;;10.45;5.30;;;3.50;99.90;;;;;;5055464;28;20107;-73
2021/03/19 02:16:19;;;;;;;8.70;4.95;;;3.40;99.90;;;;;;5053846;28;20028;-73
2021/03/19 02:19:22;;;;;;;8.88;5.07;;;3.30;99.90;;;;;;5060071;28;20448;-73
2021/03/19 02:22:25;;;;;;;9.60;5.00;;;3.40;99.90;;;;;;5049834;28;20067;-73
2021/03/19 02:25:28;;;;;;;13.07;5.80;;;3.40;99.90;;;;;;5054026;28;20032;-73
2021/03/19 02:28:31;;;;;;;9.40;5.05;;;3.50;99.90;;;;;;5051224;28;20437;-73
2021/03/19 02:31:14;;;;;;;9.95;5.00;;;3.40;99.90;;;;;;5045597;28;20021;-73
2021/03/19 02:33:53;;;;;;;11.00;5.13;;;3.50;99.90;;;;;;5060233;28;20100;-73
2021/03/19 02:36:23;;;;;;;8.77;5.38;;;3.40;99.90;;;;;;5055182;28;20036;-72
2021/03/19 02:38:49;;;;;;;13.70;4.85;;;3.40;99.90;;;;;;5052115;28;20029;-73
2021/03/19 02:41:15;;;;;;;11.63;5.80;;;3.30;99.90;;;;;;5055206;28;20371;-72
2021/03/19 02:43:41;;;;;;;11.02;4.75;;;3.30;99.90;;;;;;5059500;28;21534;-72
2021/03/19 02:46:06;;;;;;;9.52;5.18;;;3.20;99.90;;;;;;5054205;28;20040;-73
2021/03/19 02:48:32;;;;;;;10.15;5.47;;;3.00;99.90;;;;;;5050448;28;20017;-72
2021/03/19 02:50:58;;;;;;;13.10;6.15;;;2.90;99.90;;;;;;5055823;28;20518;-72
2021/03/19 02:53:27;;;;;;;13.38;6.13;;;2.90;99.90;;;;;;5051741;28;20061;-72
2021/03/19 02:55:54;;;;;;;11.80;5.50;;;2.90;99.90;;;;;;5060607;28;20242;-73
2021/03/19 02:58:23;;;;;;;13.70;6.05;;;2.90;99.90;;;;;;5065257;28;20024;-73
2021/03/19 03:00:49;;;;;;;21.08;7.15;;;2.80;99.90;;;;;;5059862;28;20035;-73
2021/03/19 03:03:15;;;;;;;27.45;7.70;;;2.80;99.90;;;;;;5065533;28;20029;-73
2021/03/19 03:05:41;;;;;;;17.88;8.05;;;2.80;99.90;;;;;;5064407;28;20032;-73
2021/03/19 03:08:09;;;;;;;16.85;7.22;;;2.90;99.90;;;;;;5046270;28;20505;-73
2021/03/19 03:10:35;;;;;;;18.45;8.73;;;2.80;99.90;;;;;;5061593;28;20075;-73
2021/03/19 03:13:01;;;;;;;18.33;8.02;;;2.70;99.90;;;;;;5060064;28;20032;-73
2021/03/19 03:15:26;;;;;;;19.20;8.30;;;2.60;99.90;;;;;;5060310;28;20016;-72
2021/03/19 03:17:52;;;;;;;22.73;8.75;;;2.70;99.90;;;;;;5068149;28;20119;-73
2021/03/19 03:20:41;;;;;;;23.05;8.00;;;2.70;99.90;;;;;;5061114;28;20028;-73
2021/03/19 03:23:07;;;;;;;27.38;8.98;;;2.80;99.90;;;;;;5057132;28;20516;-73
2021/03/19 03:25:35;;;;;;;23.25;9.25;;;2.90;99.90;;;;;;5050371;28;20233;-73
2021/03/19 03:28:00;;;;;;;25.23;9.23;;;2.90;99.90;;;;;;5059010;28;20036;-73
2021/03/19 03:30:43;;;;;;;24.10;8.70;;;3.00;99.90;;;;;;5057653;28;20028;-73
2021/03/19 03:33:10;;;;;;;25.33;9.00;;;2.90;99.90;;;;;;5053343;28;20025;-73
2021/03/19 03:35:36;;;;;;;24.30;10.02;;;2.90;99.90;;;;;;5049941;28;20016;-73
2021/03/19 03:38:05;;;;;;;21.20;9.10;;;2.90;99.90;;;;;;5052837;28;20025;-73
2021/03/19 03:40:47;;;;;;;24.55;10.43;;;2.90;99.90;;;;;;5055674;28;20512;-72
2021/03/19 03:43:15;;;;;;;29.05;9.82;;;3.00;99.90;;;;;;5052911;28;20029;-72
2021/03/19 03:45:42;;;;;;;23.65;10.52;;;3.20;99.90;;;;;;5059736;28;20028;-73
2021/03/19 03:48:09;;;;;;;22.85;9.43;;;3.10;99.90;;;;;;5065383;28;20029;-73
2021/03/19 03:50:37;;;;;;;32.50;10.05;;;2.80;99.90;;;;;;5063219;28;20047;-73
2021/03/19 03:53:03;;;;;;;33.20;9.60;;;2.60;99.90;;;;;;5062470;28;20024;-73
2021/03/19 03:55:29;;;;;;;33.00;9.95;;;2.60;99.90;;;;;;5061627;28;20032;-73
2021/03/19 03:57:54;;;;;;;26.45;10.07;;;2.60;99.90;;;;;;5062819;28;20028;-73
2021/03/19 04:00:23;;;;;;;31.33;9.48;;;2.60;99.90;;;;;;5061904;28;20044;-73
2021/03/19 04:02:49;;;;;;;29.65;10.15;;;2.70;99.90;;;;;;5063956;28;20103;-74
2021/03/19 04:05:23;;;;;;;32.08;11.05;;;2.70;99.90;;;;;;5052555;28;20104;-73
2021/03/19 04:07:49;;;;;;;26.92;10.18;;;2.60;99.90;;;;;;5057704;28;20398;-73
2021/03/19 04:10:16;;;;;;;35.05;10.55;;;2.50;99.90;;;;;;5061389;28;20109;-73
2021/03/19 04:12:42;;;;;;;33.42;10.02;;;2.40;99.90;;;;;;5045058;28;20059;-73
2021/03/19 04:15:08;;;;;;;23.52;9.38;;;2.40;99.90;;;;;;5057424;28;20032;-73
2021/03/19 04:17:35;;;;;;;31.15;10.60;;;2.40;99.90;;;;;;5065057;28;20030;-73
2021/03/19 04:20:01;;;;;;;33.75;11.10;;;2.50;99.90;;;;;;5069691;28;20032;-73
2021/03/19 04:22:27;;;;;;;27.90;10.77;;;2.50;99.90;;;;;;5057344;28;20025;-74
2021/03/19 04:24:54;;;;;;;36.35;10.77;;;2.20;99.90;;;;;;5049927;28;20111;-73
2021/03/19 04:27:23;;;;;;;26.95;10.10;;;2.20;99.90;;;;;;5058287;28;20093;-74
2021/03/19 04:29:49;;;;;;;33.60;9.95;;;2.20;99.90;;;;;;5048686;28;20380;-73
2021/03/19 04:32:15;;;;;;;29.33;10.02;;;2.10;99.90;;;;;;5050670;28;20040;-74
2021/03/19 04:34:41;;;;;;;33.28;11.05;;;2.30;99.90;;;;;;5056664;28;20089;-73
2021/03/19 04:37:08;;;;;;;20.77;9.98;;;2.30;99.90;;;;;;5056222;28;20510;-73
2021/03/19 04:39:37;;;;;;;25.33;9.75;;;2.20;99.90;;;;;;5053671;28;20094;-73
2021/03/19 04:42:03;;;;;;;29.63;9.60;;;2.20;99.90;;;;;;5046930;28;20120;-73
2021/03/19 04:44:36;;;;;;;28.80;10.77;;;2.30;99.90;;;;;;5063693;28;20020;-73
2021/03/19 04:47:02;;;;;;;29.65;9.57;;;2.40;99.90;;;;;;5062882;28;20495;-73
2021/03/19 04:49:27;;;;;;;28.35;9.48;;;2.50;99.90;;;;;;5064913;28;20041;-74
2021/03/19 04:51:54;;;;;;;25.00;9.93;;;2.60;99.90;;;;;;5064967;28;20118;-73
2021/03/19 04:54:19;;;;;;;23.55;10.65;;;2.70;99.90;;;;;;5063856;28;20029;-73
2021/03/19 04:56:45;;;;;;;25.35;9.20;;;2.70;99.90;;;;;;5055025;28;20025;-73
2021/03/19 04:59:11;;;;;;;22.83;9.05;;;2.70;99.90;;;;;;5065552;28;20029;-73
2021/03/19 05:02:05;;;;;;;20.60;9.18;;;2.80;99.90;;;;;;5057932;28;20150;-74
2021/03/19 05:04:31;;;;;;;26.80;10.30;;;2.70;99.90;;;;;;5046278;28;20086;-73
2021/03/19 05:07:01;;;;;;;31.33;9.90;;;2.70;99.90;;;;;;5059976;28;20016;-73
2021/03/19 05:09:31;;;;;;;32.35;10.70;;;2.70;99.90;;;;;;5061483;28;20082;-74
2021/03/19 05:11:58;;;;;;;27.60;10.10;;;2.60;99.90;;;;;;5058216;28;20383;-74
2021/03/19 05:14:23;;;;;;;21.95;9.70;;;2.70;99.90;;;;;;5061305;28;20043;-73
2021/03/19 05:16:50;;;;;;;30.02;10.20;;;2.60;99.90;;;;;;5057233;28;20032;-73
2021/03/19 05:19:16;;;;;;;21.52;9.93;;;2.60;99.90;;;;;;5077122;28;20029;-74
2021/03/19 05:21:42;;;;;;;22.13;10.30;;;2.60;99.90;;;;;;5059421;28;20029;-73
2021/03/19 05:24:08;;;;;;;25.83;10.13;;;2.60;99.90;;;;;;5056621;28;20379;-74
2021/03/19 05:26:34;;;;;;;21.00;9.43;;;2.50;99.90;;;;;;5059119;28;20078;-73
2021/03/19 05:29:00;;;;;;;23.02;10.45;;;2.50;99.90;;;;;;5065255;28;20387;-73
2021/03/19 05:31:25;;;;;;;24.10;9.73;;;2.70;99.90;;;;;;5063412;28;20024;-73
2021/03/19 05:33:53;;;;;;;23.65;10.85;;;2.80;99.90;;;;;;5065336;28;20789;-73
2021/03/19 05:36:25;;;;;;;21.15;10.52;;;2.70;99.90;;;;;;5060651;28;20144;-73
2021/03/19 05:38:52;;;;;;;24.58;10.95;;;2.70;99.90;;;;;;5063225;28;20032;-73
2021/03/19 05:41:19;;;;;;;24.88;10.15;;;2.60;99.90;;;;;;5063013;28;20021;-73
2021/03/19 05:43:49;;;;;;;20.27;9.32;;;2.60;99.90;;;;;;5061031;28;20016;-73
2021/03/19 05:46:36;;;;;;;21.27;9.93;;;2.70;99.90;;;;;;5065563;28;20035;-73
2021/03/19 05:49:08;;;;;;;22.83;9.48;;;2.60;99.90;;;;;;5056630;28;20033;-73
2021/03/19 05:51:44;;;;;;;24.10;10.02;;;2.70;99.90;;;;;;5064006;28;20044;-73
2021/03/19 05:54:10;;;;;;;20.02;8.63;;;2.50;99.90;;;;;;5053598;28;20029;-73
2021/03/19 05:56:36;;;;;;;26.50;11.55;;;2.50;99.90;;;;;;5062314;28;20025;-73
2021/03/19 05:59:02;;;;;;;25.80;11.02;;;2.50;99.90;;;;;;5056144;28;20499;-73
2021/03/19 06:01:28;;;;;;;25.08;10.55;;;2.50;99.90;;;;;;5053395;28;20049;-73
2021/03/19 06:03:57;;;;;;;20.00;9.93;;;2.70;99.90;;;;;;5050453;28;20108;-72
2021/03/19 06:06:22;;;;;;;20.77;10.27;;;2.70;99.90;;;;;;5067339;28;20029;-73
2021/03/19 06:08:57;;;;;;;27.02;11.15;;;2.70;99.90;;;;;;5063322;28;20483;-73
2021/03/19 06:11:26;;;;;;;32.65;11.32;;;2.60;99.90;;;;;;5045529;28;20029;-73
2021/03/19 06:14:03;;;;;;;20.00;9.98;;;2.60;99.90;;;;;;5063636;28;20028;-73
2021/03/19 06:16:34;;;;;;;24.63;11.85;;;2.60;99.90;;;;;;5066792;28;20067;-73
2021/03/19 06:19:03;;;;;;;31.67;12.55;;;2.60;99.90;;;;;;5065933;28;20021;-73
2021/03/19 06:21:35;;;;;;;23.17;10.13;;;2.60;99.90;;;;;;5065271;28;20028;-73
2021/03/19 06:24:03;;;;;;;;;;;2.70;99.90;;;;;;5055669;28;20024;-74
2021/03/19 06:26:35;;;;;;;17.35;8.15;;;2.70;99.90;;;;;;5066249;28;19912;-73
2021/03/19 06:29:26;;;;;;;22.80;10.20;;;2.60;99.90;;;;;;5058387;28;20035;-74
2021/03/19 06:32:24;;;;;;;18.08;9.65;;;2.80;99.90;;;;;;5061341;28;20729;-73
2021/03/19 06:35:02;;;;;;;19.25;9.20;;;2.90;99.90;;;;;;5060567;28;20109;-73
2021/03/19 06:37:42;;;;;;;17.45;8.57;;;2.80;99.90;;;;;;5060802;28;20037;-73
2021/03/19 06:40:30;;;;;;;21.70;9.48;;;2.80;99.90;;;;;;5059599;28;20392;-74
2021/03/19 06:43:24;;;;;;;17.42;8.23;;;2.90;99.90;;;;;;5049444;28;20032;-74
2021/03/19 06:46:12;;;;;;;21.02;9.18;;;2.90;99.90;;;;;;5058161;28;20029;-73
2021/03/19 06:48:41;;;;;;;21.05;8.85;;;3.00;99.90;;;;;;5060124;28;20043;-73
2021/03/19 06:51:26;;;;;;;17.75;8.25;;;3.20;99.90;;;;;;5045082;28;20057;-73
2021/03/19 06:54:03;;;;;;;18.17;8.93;;;3.10;99.90;;;;;;5033682;28;20154;-73
2021/03/19 06:56:29;;;;;;;18.50;9.10;;;3.10;99.90;;;;;;5045057;28;20025;-73
2021/03/19 06:58:55;;;;;;;21.13;9.23;;;3.00;99.90;;;;;;5040466;28;20487;-73
2021/03/19 07:01:24;;;;;;;22.45;9.57;;;3.00;99.90;;;;;;5045960;28;20029;-73
2021/03/19 07:04:08;;;;;;;61.38;22.85;;;2.90;99.90;;;;;;5040511;28;20028;-73
2021/03/19 07:07:03;;;;;;;105.95;32.08;;;3.00;99.90;;;;;;5039337;28;20021;-73
2021/03/19 07:10:01;;;;;;;54.65;22.23;;;3.10;99.90;;;;;;5035782;28;20037;-73
2021/03/19 07:12:58;;;;;;;16.90;8.68;;;3.20;99.90;;;;;;5043341;28;20470;-72
2021/03/19 07:15:50;;;;;;;16.10;8.30;;;3.20;99.90;;;;;;5044368;28;20052;-73
2021/03/19 07:19:00;;;;;;;15.07;8.02;;;3.30;99.90;;;;;;5043062;28;20044;-72
2021/03/19 07:21:53;;;;;;;17.80;8.48;;;3.30;99.90;;;;;;5045014;28;20032;-72
2021/03/19 07:24:28;;;;;;;17.80;9.00;;;3.20;99.90;;;;;;5042094;28;20049;-72
2021/03/19 07:27:19;;;;;;;18.00;7.85;;;3.20;99.90;;;;;;5043332;28;20151;-72
2021/03/19 07:30:10;;;;;;;15.50;7.90;;;3.40;99.90;;;;;;4993547;28;20033;-72
2021/03/19 07:33:04;;;;;;;21.17;10.23;;;3.40;99.90;;;;;;5035893;28;20048;-71
2021/03/19 07:35:30;;;;;;;20.95;8.55;;;3.50;99.90;;;;;;5043036;28;20036;-72
2021/03/19 07:38:19;;;;;;;16.67;7.78;;;3.50;99.90;;;;;;5038852;28;20025;-71
2021/03/19 07:41:00;;;;;;;14.13;7.15;;;3.50;99.90;;;;;;5019810;28;20033;-72
2021/03/19 07:43:45;;;;;;;16.67;7.72;;;3.50;99.90;;;;;;5037916;28;20029;-71
2021/03/19 07:46:16;;;;;;;23.02;11.88;;;3.70;99.90;;;;;;5038585;28;20116;-71
2021/03/19 07:48:57;;;;;;;26.15;10.63;;;3.80;99.90;;;;;;5036745;28;20072;-72
2021/03/19 07:51:40;;;;;;;15.15;7.72;;;3.80;99.90;;;;;;5035210;28;20125;-71
2021/03/19 07:54:12;;;;;;;14.38;7.28;;;3.90;99.90;;;;;;5036416;28;20020;-71
2021/03/19 07:57:10;;;;;;;18.90;8.02;;;3.90;99.90;;;;;;5036996;28;20025;-71
2021/03/19 07:59:47;;;;;;;25.98;11.70;;;3.80;99.90;;;;;;5036957;28;20035;-71
2021/03/19 08:02:13;;;;;;;18.58;8.00;;;3.90;99.90;;;;;;5041687;28;20040;-71
2021/03/19 08:04:55;;;;;;;16.20;7.95;;;4.00;99.90;;;;;;5037951;28;20029;-71
2021/03/19 08:07:47;;;;;;;15.43;7.40;;;3.90;99.90;;;;;;5042215;28;20029;-71
2021/03/19 08:10:25;;;;;;;14.85;7.22;;;4.00;99.90;;;;;;5019208;28;20045;-72
2021/03/19 08:13:17;;;;;;;17.80;8.48;;;4.10;99.90;;;;;;5039845;28;20128;-71
2021/03/19 08:15:59;;;;;;;20.60;9.07;;;4.20;99.90;;;;;;5038417;28;20057;-73
2021/03/19 08:18:32;;;;;;;20.77;8.82;;;4.20;99.90;;;;;;5040376;28;20029;-72
2021/03/19 08:21:06;;;;;;;20.73;9.30;;;4.30;99.90;;;;;;5038253;28;20021;-72
2021/03/19 08:24:09;;;;;;;20.67;9.18;;;4.30;99.90;;;;;;5039005;28;20029;-72
2021/03/19 08:26:44;;;;;;;12.52;6.53;;;4.40;99.90;;;;;;5036138;28;20108;-72
2021/03/19 08:29:52;;;;;;;20.63;9.43;;;4.40;99.90;;;;;;5035113;28;20523;-73
2021/03/19 08:32:42;;;;;;;22.25;10.20;;;4.30;99.90;;;;;;5038747;28;20357;-71
2021/03/19 08:35:30;;;;;;;16.08;8.55;;;4.30;99.90;;;;;;5038061;28;20025;-72
2021/03/19 08:38:20;;;;;;;18.50;8.77;;;4.30;99.90;;;;;;5040209;28;20021;-72
2021/03/19 08:40:55;;;;;;;17.85;9.52;;;4.30;99.90;;;;;;5040546;28;20082;-70
2021/03/19 08:43:33;;;;;;;16.60;8.70;;;4.30;99.90;;;;;;5040088;28;20031;-72
2021/03/19 08:46:05;;;;;;;14.68;7.18;;;4.30;99.90;;;;;;5030896;28;20090;-71
2021/03/19 08:48:33;;;;;;;12.35;7.05;;;4.40;99.90;;;;;;5035795;28;20126;-70
2021/03/19 08:51:14;;;;;;;12.25;6.93;;;4.40;99.90;;;;;;5035250;28;20059;-70
2021/03/19 08:54:14;;;;;;;14.82;7.45;;;4.30;99.90;;;;;;5034632;28;20040;-72
2021/03/19 08:56:49;;;;;;;15.57;7.53;;;4.20;99.90;;;;;;5039743;28;20029;-71
2021/03/19 08:59:33;;;;;;;12.75;6.78;;;4.30;99.90;;;;;;5040128;28;20128;-70
2021/03/19 09:02:31;;;;;;;13.02;5.97;;;4.30;99.90;;;;;;5036673;28;20031;-70
2021/03/19 09:04:56;;;;;;;15.57;7.72;;;4.40;99.90;;;;;;5034360;28;20021;-74
2021/03/19 09:07:36;;;;;;;22.60;9.25;;;4.50;99.90;;;;;;5038821;28;20434;-72
2021/03/19 09:10:14;;;;;;;9.88;5.65;;;4.60;99.90;;;;;;5035149;28;20025;-71
2021/03/19 09:12:54;;;;;;;10.20;5.93;;;4.80;99.90;;;;;;5038149;28;20053;-71
2021/03/19 09:15:19;;;;;;;8.60;5.18;;;5.00;99.90;;;;;;5037867;28;20037;-70
2021/03/19 09:17:49;;;;;;;9.68;5.15;;;5.20;99.90;;;;;;5042768;28;20029;-71
2021/03/19 09:20:33;;;;;;;10.35;5.05;;;5.20;99.90;;;;;;5039387;28;20032;-72
2021/03/19 09:23:17;;;;;;;9.93;4.13;;;5.20;99.90;;;;;;5039339;28;20071;-71
2021/03/19 09:26:21;;;;;;;7.18;4.07;;;5.10;99.90;;;;;;5043592;28;20492;-71
2021/03/19 09:29:20;;;;;;;6.40;3.42;;;5.00;99.90;;;;;;5028707;28;20449;-71
2021/03/19 09:31:50;;;;;;;7.15;3.70;;;5.10;99.90;;;;;;5043805;28;20040;-72
2021/03/19 09:34:21;;;;;;;7.07;3.30;;;5.20;99.90;;;;;;5040414;28;20029;-73
2021/03/19 09:37:04;;;;;;;5.00;2.80;;;5.30;99.90;;;;;;5045829;28;20025;-72
2021/03/19 09:39:55;;;;;;;5.55;3.08;;;5.60;99.90;;;;;;5043402;28;20020;-73
2021/03/19 09:42:20;;;;;;;4.45;2.72;;;5.40;99.90;;;;;;5040331;28;20039;-73
2021/03/19 09:44:58;;;;;;;3.63;2.42;;;5.40;99.90;;;;;;5043351;28;20033;-72
2021/03/19 09:47:26;;;;;;;4.50;2.10;;;5.40;99.90;;;;;;5046819;28;20033;-74
2021/03/19 09:50:13;;;;;;;3.92;2.03;;;5.30;99.90;;;;;;5049983;28;20115;-73
2021/03/19 09:52:54;;;;;;;5.18;1.92;;;5.40;99.90;;;;;;5036618;28;20037;-72
2021/03/19 09:55:23;;;;;;;2.70;1.80;;;5.60;99.90;;;;;;5042460;28;20056;-72
2021/03/19 09:57:50;;;;;;;3.22;2.05;;;5.80;99.90;;;;;;5039135;28;20679;-71
2021/03/19 10:00:29;;;;;;;2.88;1.92;;;6.20;99.90;;;;;;5030390;28;20040;-72
2021/03/19 10:03:08;;;;;;;5.65;1.83;;;6.30;99.90;;;;;;5036615;28;20036;-72
2021/03/19 10:05:40;;;;;;;6.57;2.38;;;6.40;99.90;;;;;;5034269;28;20025;-71
2021/03/19 10:08:07;;;;;;;3.45;1.95;;;6.50;99.90;;;;;;5039949;28;20039;-72
2021/03/19 10:10:40;;;;;;;4.38;2.25;;;6.80;99.90;;;;;;5024276;28;20487;-72
2021/03/19 10:13:18;;;;;;;5.82;1.70;;;6.70;99.90;;;;;;5035014;28;20483;-72
2021/03/19 10:15:49;;;;;;;7.47;1.88;;;7.00;99.90;;;;;;5041210;28;20053;-71
2021/03/19 10:18:37;;;;;;;4.15;1.60;;;7.00;99.90;;;;;;5038358;28;20818;-71
2021/03/19 10:21:07;;;;;;;2.33;1.63;;;6.90;99.90;;;;;;5031204;28;20091;-73
2021/03/19 10:23:42;;;;;;;5.20;1.80;;;6.80;99.90;;;;;;5023091;28;20079;-74
2021/03/19 10:26:27;;;;;;;3.13;1.65;;;7.10;99.90;;;;;;5036599;28;20036;-72
2021/03/19 10:29:22;;;;;;;2.47;1.73;;;7.60;99.90;;;;;;5035497;28;20970;-70
2021/03/19 10:31:53;;;;;;;1.95;1.60;;;7.80;99.90;;;;;;5036705;28;20029;-70
2021/03/19 10:34:43;;;;;;;2.63;1.60;;;8.10;99.90;;;;;;5035653;28;20924;-73
2021/03/19 10:37:51;;;;;;;3.13;1.67;;;8.20;99.90;;;;;;5035876;28;20499;-71
2021/03/19 10:40:23;;;;;;;5.68;2.42;;;8.50;98.00;;;;;;5028612;28;20037;-74
2021/03/19 10:43:10;;;;;;;;;;;8.50;96.70;;;;;;5037268;28;20483;-72
2021/03/19 10:45:39;;;;;;;5.50;2.00;;;8.20;96.40;;;;;;5033416;28;19927;-72
2021/03/19 10:48:33;;;;;;;5.68;2.00;;;7.80;96.00;;;;;;5034314;28;20029;-72
2021/03/19 10:51:14;;;;;;;3.35;1.92;;;7.80;98.60;;;;;;5039743;28;20041;-71
2021/03/19 10:54:07;;;;;;;3.80;2.03;;;8.00;96.60;;;;;;5036731;28;20183;-72
2021/03/19 10:56:33;;;;;;;2.90;1.80;;;8.20;94.90;;;;;;5014263;28;20077;-72
2021/03/19 10:59:20;;;;;;;7.88;2.17;;;8.20;93.20;;;;;;5041295;28;20060;-72
2021/03/19 11:01:49;;;;;;;2.83;1.50;;;8.10;94.40;;;;;;5040930;28;20384;-71
2021/03/19 11:04:35;;;;;;;2.35;1.40;;;7.80;93.00;;;;;;5038554;28;20056;-72
2021/03/19 11:07:17;;;;;;;2.38;1.15;;;7.60;93.60;;;;;;5036201;28;20110;-71
2021/03/19 11:10:02;;;;;;;1.20;0.90;;;7.30;93.10;;;;;;5029086;28;20053;-72
2021/03/19 11:12:51;;;;;;;2.33;1.13;;;7.20;93.90;;;;;;5040309;28;20035;-71
2021/03/19 11:15:28;;;;;;;2.25;1.15;;;7.20;93.60;;;;;;5041423;28;20035;-70
2021/03/19 11:18:21;;;;;;;2.78;1.00;;;7.50;93.20;;;;;;5031718;28;20037;-72
2021/03/19 11:20:54;;;;;;;4.03;1.10;;;8.00;90.20;;;;;;5030302;28;20426;-72
2021/03/19 11:23:25;;;;;;;1.42;0.88;;;8.50;87.30;;;;;;5038559;28;20025;-72
2021/03/19 11:25:55;;;;;;;2.08;0.80;;;8.90;87.60;;;;;;5039141;28;20040;-72
2021/03/19 11:28:30;;;;;;;2.57;1.90;;;9.60;84.70;;;;;;5033218;28;20013;-71
2021/03/19 11:31:14;;;;;;;3.33;0.93;;;10.20;81.80;;;;;;5041031;28;20279;-72
2021/03/19 11:34:00;;;;;;;1.58;0.85;;;9.80;77.00;;;;;;5041076;28;20024;-72
2021/03/19 11:36:28;;;;;;;2.92;1.10;;;9.00;78.20;;;;;;5031441;28;20041;-72
2021/03/19 11:38:54;;;;;;;1.88;0.73;;;8.40;80.30;;;;;;5028584;28;20067;-71
2021/03/19 11:41:31;;;;;;;1.83;0.80;;;8.10;80.80;;;;;;5042495;28;20398;-72
2021/03/19 11:44:01;;;;;;;0.75;0.75;;;8.00;79.60;;;;;;5041486;28;20265;-72
2021/03/19 11:46:28;;;;;;;1.48;0.90;;;7.70;79.70;;;;;;5039066;28;20442;-70
2021/03/19 11:48:54;;;;;;;1.48;1.08;;;7.80;80.80;;;;;;5021477;28;20029;-71
2021/03/19 11:51:34;;;;;;;1.75;1.00;;;7.90;79.20;;;;;;5038239;28;20060;-72
2021/03/19 11:54:17;;;;;;;1.30;1.10;;;7.70;79.20;;;;;;5029571;28;20080;-71
2021/03/19 11:56:45;;;;;;;1.65;1.00;;;7.50;78.70;;;;;;5045792;28;20025;-71
2021/03/19 11:59:13;;;;;;;1.17;0.85;;;7.20;78.60;;;;;;5044460;28;20267;-71
2021/03/19 12:01:39;;;;;;;1.83;0.98;;;7.20;78.50;;;;;;5046564;28;20017;-69
2021/03/19 12:04:05;;;;;;;1.42;1.00;;;8.10;77.30;;;;;;5037988;28;20472;-71
2021/03/19 12:06:32;;;;;;;1.77;1.08;;;9.30;74.60;;;;;;5049880;28;20470;-71
2021/03/19 12:08:58;;;;;;;2.15;0.93;;;10.30;69.20;;;;;;5057317;28;20090;-70
2021/03/19 12:11:49;;;;;;;3.15;0.90;;;10.60;66.20;;;;;;5040676;28;20082;-71
2021/03/19 12:14:24;;;;;;;2.10;1.48;;;9.90;63.30;;;;;;5034320;28;20033;-72
2021/03/19 12:16:50;;;;;;;3.13;1.40;;;9.10;74.70;;;;;;5039678;28;20043;-73
2021/03/19 12:19:16;;;;;;;3.95;1.27;;;8.50;69.30;;;;;;5046723;28;20103;-76
2021/03/19 12:21:43;;;;;;;3.80;0.98;;;8.00;71.40;;;;;;5046197;28;20036;-75
2021/03/19 12:24:09;;;;;;;2.38;0.90;;;7.70;73.90;;;;;;5042200;28;20021;-74
2021/03/19 12:26:34;;;;;;;1.45;0.90;;;7.70;74.10;;;;;;5035576;28;20124;-75
2021/03/19 12:29:00;;;;;;;2.55;1.27;;;7.50;77.40;;;;;;5047131;28;20040;-75
2021/03/19 12:31:25;;;;;;;2.10;1.05;;;7.60;74.70;;;;;;5044930;28;20021;-74
2021/03/19 12:33:51;;;;;;;4.03;1.10;;;7.60;76.30;;;;;;5038767;28;20570;-80
2021/03/19 12:36:17;;;;;;;4.78;1.27;;;7.70;73.90;;;;;;5040034;28;21788;-75
2021/03/19 12:38:43;;;;;;;1.20;0.90;;;7.50;75.30;;;;;;5039040;28;20569;-73
2021/03/19 12:41:09;;;;;;;1.67;0.82;;;7.50;77.00;;;;;;5036325;28;20039;-74
2021/03/19 12:43:39;;;;;;;2.63;1.00;;;7.30;74.70;;;;;;5032117;28;20100;-74
2021/03/19 12:46:06;;;;;;;0.80;0.60;;;7.10;71.60;;;;;;5038961;28;20098;-74
2021/03/19 12:48:32;;;;;;;1.25;0.98;;;7.00;70.40;;;;;;5038841;28;20135;-74
2021/03/19 12:50:57;;;;;;;4.60;0.82;;;7.10;70.70;;;;;;5034147;28;20116;-74
2021/03/19 12:53:24;;;;;;;0.80;0.80;;;7.20;72.60;;;;;;5067334;28;20115;-74
2021/03/19 12:55:51;;;;;;;1.88;1.42;;;7.30;70.70;;;;;;5062167;28;20055;-73
2021/03/19 12:58:19;;;;;;;2.53;1.35;;;7.20;69.90;;;;;;5052467;28;20037;-74
2021/03/19 13:00:45;;;;;;;2.72;1.10;;;7.20;72.70;;;;;;5052461;28;20068;-74
2021/03/19 13:03:11;;;;;;;1.85;1.10;;;7.40;70.90;;;;;;5067204;28;20063;-75
2021/03/19 13:05:37;;;;;;;3.08;1.33;;;7.60;69.60;;;;;;5053989;28;20210;-74
2021/03/19 13:08:04;;;;;;;0.80;0.75;;;7.60;70.20;;;;;;5054001;28;20033;-85
2021/03/19 13:10:31;;;;;;;3.65;1.40;;;7.60;69.80;;;;;;5060901;28;20028;-74
2021/03/19 13:12:58;;;;;;;1.17;1.02;;;7.80;76.00;;;;;;5049523;28;20051;-74
2021/03/19 13:15:26;;;;;;;2.95;1.50;;;7.80;70.40;;;;;;5062998;28;20033;-73
2021/03/19 13:17:52;;;;;;;4.38;1.17;;;8.10;69.60;;;;;;5057013;28;20090;-74
2021/03/19 13:20:19;;;;;;;1.38;0.82;;;8.30;67.70;;;;;;5063272;28;20508;-74
2021/03/19 13:22:44;;;;;;;1.92;0.93;;;8.70;68.70;;;;;;5066993;28;20158;-73
2021/03/19 13:25:15;;;;;;;1.98;1.10;;;9.00;67.00;;;;;;5059043;28;20346;-74
2021/03/19 13:27:40;;;;;;;1.50;0.90;;;9.10;67.20;;;;;;5049293;28;20118;-74